Terminal Aerodrome Forecast
Issued by NWS Grand Forks, ND

Home | Current Version | Previous Version | Graphics & Text | Print | Product List | Glossary On
Versions: 1 2 3 4 5 6 7 8 9 10 11 12
000
FTUS43 KFGF 270520
TAFFAR
TAF
KFAR 270520Z 2706/2806 08007KT P6SM OVC040
     FM271200 07011KT P6SM BKN200
     FM271500 05017G25KT P6SM OVC200
     FM280100 06011KT P6SM BKN150=

USA.gov is the U.S. government's official web portal to all federal, state and local government web resources and services.